createdAt,value
2023-12-12T00:00:52.394Z,11.03
2023-12-12T00:03:55.954Z,21.43
2023-12-12T00:06:58.977Z,12.47
2023-12-12T00:10:02.479Z,11.17
2023-12-12T00:13:05.468Z,12.63
2023-12-12T00:16:10.157Z,14.27
2023-12-12T00:19:14.235Z,19.20
2023-12-12T00:22:17.194Z,18.57
2023-12-12T00:25:20.478Z,13.80
2023-12-12T00:28:25.872Z,15.90
2023-12-12T00:31:29.176Z,25.37
2023-12-12T00:34:33.272Z,11.73
2023-12-12T00:37:37.874Z,11.20
2023-12-12T00:40:43.069Z,9.40
2023-12-12T00:43:48.027Z,10.17
2023-12-12T00:46:51.035Z,8.40
2023-12-12T00:49:54.995Z,7.43
2023-12-12T00:52:58.192Z,8.40
2023-12-12T00:56:01.316Z,7.60
2023-12-12T00:59:04.207Z,5.43
2023-12-12T01:02:08.029Z,6.17
2023-12-12T01:05:11.539Z,5.00
2023-12-12T01:08:14.907Z,6.07
2023-12-12T01:11:17.951Z,6.83
2023-12-12T01:14:20.991Z,5.23
2023-12-12T01:20:53.266Z,4.93
2023-12-12T01:23:55.568Z,4.80
2023-12-12T01:26:57.764Z,6.10
2023-12-12T01:30:00.159Z,6.60
2023-12-12T01:33:02.397Z,4.70
2023-12-12T01:36:04.804Z,5.50
2023-12-12T01:39:07.024Z,5.40
2023-12-12T01:42:09.197Z,5.97
2023-12-12T01:45:11.421Z,4.07
2023-12-12T01:48:13.843Z,3.00
2023-12-12T01:51:15.963Z,3.90
2023-12-12T01:54:18.420Z,3.03
2023-12-12T01:57:20.695Z,3.80
2023-12-12T02:00:22.927Z,3.43
2023-12-12T02:03:25.265Z,3.50
2023-12-12T02:06:29.521Z,4.67
2023-12-12T02:09:32.082Z,5.10
2023-12-12T02:12:35.236Z,3.00
2023-12-12T02:15:37.474Z,4.73
2023-12-12T02:18:39.732Z,5.20
2023-12-12T02:21:41.966Z,4.90
2023-12-12T02:24:44.308Z,5.07
2023-12-12T02:27:47.155Z,5.20
2023-12-12T02:30:51.146Z,4.27
2023-12-12T02:33:53.490Z,5.43
2023-12-12T02:36:57.024Z,6.50
2023-12-12T02:39:59.198Z,6.90
2023-12-12T02:43:01.686Z,7.97
2023-12-12T02:46:03.844Z,6.07
2023-12-12T02:49:07.305Z,6.17
2023-12-12T02:52:09.425Z,5.83
2023-12-12T02:55:11.840Z,8.87
2023-12-12T02:58:14.152Z,6.70
2023-12-12T03:01:16.585Z,6.93
2023-12-12T03:04:18.647Z,5.00
2023-12-12T03:07:20.945Z,4.70
2023-12-12T03:10:24.300Z,4.33
2023-12-12T03:13:26.653Z,3.70
2023-12-12T03:16:29.947Z,4.60
2023-12-12T03:19:32.312Z,6.23
2023-12-12T03:22:34.418Z,5.70
2023-12-12T03:25:36.718Z,5.20
2023-12-12T03:28:39.271Z,6.97
2023-12-12T03:31:41.799Z,5.37
2023-12-12T03:34:43.979Z,5.47
2023-12-12T03:37:46.410Z,6.17
2023-12-12T03:40:48.482Z,5.17
2023-12-12T03:43:51.191Z,5.43
2023-12-12T03:46:53.647Z,5.80
2023-12-12T03:49:56.201Z,4.53
2023-12-12T03:52:58.646Z,5.80
2023-12-12T03:56:01.145Z,5.20
2023-12-12T03:59:03.498Z,5.23
2023-12-12T04:02:05.714Z,4.77
2023-12-12T04:05:12.178Z,7.23
2023-12-12T04:08:14.480Z,5.63
2023-12-12T04:11:16.588Z,6.13
2023-12-12T04:14:18.910Z,5.97
2023-12-12T04:17:21.280Z,6.57
2023-12-12T04:20:23.595Z,5.77
2023-12-12T04:23:27.995Z,5.07
2023-12-12T04:26:31.010Z,6.03
2023-12-12T04:29:33.507Z,6.30
2023-12-12T04:32:35.826Z,8.93
2023-12-12T04:35:39.691Z,9.50
2023-12-12T04:38:41.921Z,9.10
2023-12-12T04:41:44.156Z,9.70
2023-12-12T04:44:46.419Z,9.20
2023-12-12T04:47:50.127Z,9.17
2023-12-12T04:50:53.641Z,8.67
2023-12-12T04:53:55.863Z,13.17
2023-12-12T04:56:58.383Z,9.40
2023-12-12T05:00:00.432Z,10.50
2023-12-12T05:03:03.867Z,11.00
2023-12-12T05:06:06.078Z,10.33
2023-12-12T05:09:08.420Z,10.90
2023-12-12T05:12:10.559Z,11.60
2023-12-12T05:15:16.461Z,12.90
2023-12-12T05:18:18.765Z,11.80
2023-12-12T05:21:23.266Z,13.60
2023-12-12T05:24:26.499Z,11.83
2023-12-12T05:27:31.352Z,13.00
2023-12-12T05:30:35.803Z,14.90
2023-12-12T05:33:39.187Z,14.47
2023-12-12T05:36:41.561Z,15.87
2023-12-12T05:39:43.903Z,15.73
2023-12-12T05:42:46.185Z,16.13
2023-12-12T05:45:49.109Z,19.00
2023-12-12T05:48:52.436Z,15.97
2023-12-12T05:51:57.357Z,15.67
2023-12-12T05:54:59.842Z,18.83
2023-12-12T05:58:03.176Z,19.43
2023-12-12T06:01:05.720Z,18.10
2023-12-12T06:04:09.111Z,19.13
2023-12-12T06:07:17.768Z,19.30
2023-12-12T06:10:22.388Z,16.20
2023-12-12T06:13:28.182Z,17.97
2023-12-12T06:16:35.260Z,22.53
2023-12-12T06:19:45.984Z,31.03
2023-12-12T06:22:49.156Z,31.37
2023-12-12T06:25:52.805Z,26.30
2023-12-12T06:28:55.721Z,25.10
2023-12-12T06:31:58.279Z,28.10
2023-12-12T06:35:01.746Z,28.30
2023-12-12T06:38:05.699Z,17.40
2023-12-12T06:41:07.973Z,14.70
2023-12-12T06:44:12.617Z,7.93
2023-12-12T06:47:17.742Z,12.20
2023-12-12T06:50:21.481Z,8.03
2023-12-12T06:53:25.260Z,11.23
2023-12-12T06:56:27.468Z,12.97
2023-12-12T06:59:31.698Z,11.70
2023-12-12T07:02:34.016Z,15.03
2023-12-12T07:05:36.426Z,9.50
2023-12-12T07:08:40.546Z,10.07
2023-12-12T07:11:43.131Z,10.50
2023-12-12T07:14:45.594Z,9.27
2023-12-12T07:17:48.056Z,8.90
2023-12-12T07:20:50.233Z,8.90
2023-12-12T07:23:53.333Z,9.27
2023-12-12T07:26:56.142Z,10.93
2023-12-12T07:29:59.106Z,11.40
2023-12-12T07:33:01.455Z,11.60
2023-12-12T07:36:03.913Z,17.60
2023-12-12T07:39:12.392Z,18.60
2023-12-12T07:42:15.082Z,17.43
2023-12-12T07:45:19.865Z,22.63
2023-12-12T07:48:25.192Z,31.57
2023-12-12T07:51:30.093Z,28.60
2023-12-12T07:54:33.328Z,25.67
2023-12-12T07:57:36.575Z,23.03
2023-12-12T08:00:38.910Z,23.97
2023-12-12T08:03:41.218Z,29.27
2023-12-12T08:06:43.857Z,15.37
2023-12-12T08:09:46.271Z,17.10
2023-12-12T08:12:49.856Z,25.83
2023-12-12T08:15:52.315Z,16.03
2023-12-12T08:18:54.411Z,17.20
2023-12-12T08:21:56.449Z,15.30
2023-12-12T08:24:58.853Z,16.33
2023-12-12T08:28:04.631Z,14.70
2023-12-12T08:31:07.071Z,12.17
2023-12-12T08:34:09.322Z,11.33
2023-12-12T08:37:11.763Z,11.93
2023-12-12T08:40:14.365Z,13.47
2023-12-12T08:43:17.596Z,14.87
2023-12-12T08:46:27.923Z,17.20
2023-12-12T08:49:30.533Z,15.20
2023-12-12T08:52:38.123Z,15.47
2023-12-12T08:55:41.825Z,17.10
2023-12-12T08:58:48.179Z,17.57
2023-12-12T09:01:51.530Z,22.37
2023-12-12T09:04:54.051Z,23.83
2023-12-12T09:07:57.517Z,18.17
2023-12-12T09:11:00.520Z,15.03
2023-12-12T09:14:06.958Z,15.67
2023-12-12T09:17:09.224Z,18.73
2023-12-12T09:20:13.841Z,17.73
2023-12-12T09:23:16.873Z,23.50
2023-12-12T09:26:20.072Z,24.70
2023-12-12T09:29:22.717Z,16.53
2023-12-12T09:32:24.803Z,15.23
2023-12-12T09:35:28.071Z,7.70
2023-12-12T09:38:30.410Z,14.73
2023-12-12T09:41:33.690Z,8.50
2023-12-12T09:44:35.980Z,9.67
2023-12-12T09:47:40.347Z,11.37
2023-12-12T09:50:47.231Z,9.77
2023-12-12T09:53:49.867Z,8.60
2023-12-12T09:56:52.276Z,9.57
2023-12-12T09:59:54.410Z,12.27
2023-12-12T10:02:58.713Z,10.93
2023-12-12T10:06:09.596Z,14.63
2023-12-12T10:09:12.466Z,14.30
2023-12-12T10:12:14.728Z,10.60
2023-12-12T10:15:24.017Z,8.93
2023-12-12T10:18:26.066Z,13.40
2023-12-12T10:21:28.336Z,9.30
2023-12-12T10:24:31.510Z,11.17
2023-12-12T10:27:33.948Z,10.20
2023-12-12T10:30:37.436Z,9.20
2023-12-12T10:33:40.649Z,11.43
2023-12-12T10:36:44.130Z,9.77
2023-12-12T10:39:46.616Z,6.67
2023-12-12T10:42:53.350Z,7.53
2023-12-12T10:45:55.730Z,10.27
2023-12-12T10:49:00.389Z,4.67
2023-12-12T10:52:05.727Z,9.03
2023-12-12T10:55:12.406Z,8.63
2023-12-12T10:58:14.768Z,10.50
2023-12-12T11:01:17.286Z,10.67
2023-12-12T11:04:19.349Z,6.43
2023-12-12T11:07:22.466Z,9.17
2023-12-12T11:10:25.189Z,18.57
2023-12-12T11:13:27.846Z,12.57
2023-12-12T11:16:32.225Z,8.10
2023-12-12T11:19:34.422Z,9.80
2023-12-12T11:22:40.743Z,12.10
2023-12-12T11:25:44.874Z,14.37
2023-12-12T11:28:48.562Z,12.87
2023-12-12T11:32:03.268Z,12.03
2023-12-12T11:35:09.599Z,9.47
2023-12-12T11:38:32.256Z,38.27
2023-12-12T11:41:36.385Z,11.00
2023-12-12T11:44:42.333Z,15.60
2023-12-12T11:47:44.597Z,19.13
2023-12-12T11:50:47.327Z,7.83
2023-12-12T11:53:49.794Z,6.30
2023-12-12T11:57:00.009Z,7.37
2023-12-12T12:00:03.216Z,6.23
2023-12-12T12:03:07.299Z,7.97
2023-12-12T12:06:09.626Z,6.53
2023-12-12T12:09:17.550Z,5.23
2023-12-12T12:12:21.171Z,6.80
2023-12-12T12:15:24.719Z,7.27
2023-12-12T12:18:30.135Z,7.50
2023-12-12T12:21:32.533Z,7.27
2023-12-12T12:24:41.545Z,10.87
2023-12-12T12:27:51.117Z,12.53
2023-12-12T12:30:55.512Z,9.17
2023-12-12T12:33:58.715Z,4.50
2023-12-12T12:37:03.804Z,7.27
2023-12-12T12:40:07.005Z,5.57
2023-12-12T12:43:19.314Z,4.10
2023-12-12T12:46:21.800Z,6.83
2023-12-12T12:49:24.449Z,7.50
2023-12-12T12:52:27.193Z,6.23
2023-12-12T12:55:29.731Z,5.50
2023-12-12T12:58:32.586Z,5.70
2023-12-12T13:01:35.081Z,9.03
2023-12-12T13:04:39.712Z,11.47
2023-12-12T13:07:46.774Z,11.97
2023-12-12T13:10:51.354Z,10.90
2023-12-12T13:13:54.407Z,11.57
2023-12-12T13:16:56.645Z,7.63
2023-12-12T13:20:01.700Z,8.30
2023-12-12T13:23:03.784Z,9.77
2023-12-12T13:26:09.193Z,7.97
2023-12-12T13:29:12.401Z,7.33
2023-12-12T13:32:16.916Z,9.43
2023-12-12T13:35:30.575Z,12.30
2023-12-12T13:38:37.838Z,11.57
2023-12-12T13:41:41.357Z,12.30
2023-12-12T13:44:44.437Z,10.00
2023-12-12T13:47:47.451Z,9.27
2023-12-12T13:50:50.040Z,9.73
2023-12-12T13:53:53.432Z,11.50
2023-12-12T13:56:57.133Z,9.40
2023-12-12T14:00:00.439Z,15.73
2023-12-12T14:03:02.812Z,12.33
2023-12-12T14:06:06.114Z,13.87
2023-12-12T14:09:08.559Z,19.57
2023-12-12T14:12:10.590Z,12.77
2023-12-12T14:15:13.299Z,14.20
2023-12-12T14:18:16.011Z,13.80
2023-12-12T14:21:18.478Z,12.90
2023-12-12T14:24:20.899Z,11.07
2023-12-12T14:27:24.321Z,11.33
2023-12-12T14:30:29.266Z,13.57
2023-12-12T14:33:32.465Z,17.40
2023-12-12T14:36:35.670Z,18.07
2023-12-12T14:39:38.109Z,24.93
2023-12-12T14:42:41.220Z,25.67
2023-12-12T14:45:44.742Z,23.30
2023-12-12T14:48:47.959Z,23.13
2023-12-12T14:51:51.857Z,21.83
2023-12-12T14:54:53.979Z,18.60
2023-12-12T14:57:56.475Z,37.63
2023-12-12T15:00:58.887Z,37.93
2023-12-12T15:04:01.208Z,32.30
2023-12-12T15:07:03.585Z,46.10
2023-12-12T15:10:07.462Z,46.83
2023-12-12T15:13:09.606Z,53.00
2023-12-12T15:16:12.807Z,36.47
2023-12-12T15:19:15.004Z,38.90
2023-12-12T15:22:17.645Z,36.33
2023-12-12T15:25:28.066Z,35.10
2023-12-12T15:28:34.688Z,39.57
2023-12-12T15:31:37.265Z,41.13
2023-12-12T15:34:39.588Z,40.23
2023-12-12T15:37:43.897Z,46.67
2023-12-12T15:40:47.828Z,50.33
2023-12-12T15:43:51.528Z,60.60
2023-12-12T15:46:54.694Z,48.80
2023-12-12T15:49:56.985Z,49.13
2023-12-12T15:52:59.307Z,51.30
2023-12-12T15:56:01.517Z,75.10
2023-12-12T15:59:03.761Z,62.73
2023-12-12T16:02:06.178Z,56.00
2023-12-12T16:05:10.865Z,60.07
2023-12-12T16:08:13.707Z,56.13
2023-12-12T16:11:19.986Z,44.13
2023-12-12T16:14:22.912Z,39.43
2023-12-12T16:17:25.090Z,39.47
2023-12-12T16:20:27.604Z,40.37
2023-12-12T16:23:30.671Z,31.37
2023-12-12T16:26:34.069Z,35.07
2023-12-12T16:29:36.262Z,34.30
2023-12-12T16:32:39.626Z,30.93
2023-12-12T16:35:43.085Z,24.27
2023-12-12T16:38:47.052Z,24.50
2023-12-12T16:41:49.587Z,29.47
2023-12-12T16:44:52.064Z,37.83
2023-12-12T16:47:54.314Z,142.77
2023-12-12T16:50:58.995Z,41.17
2023-12-12T16:54:01.393Z,45.03
2023-12-12T16:57:03.478Z,34.13
2023-12-12T17:00:12.283Z,37.53
2023-12-12T17:03:15.702Z,37.97
2023-12-12T17:06:21.553Z,25.07
2023-12-12T17:09:24.826Z,37.67
2023-12-12T17:12:27.612Z,36.93
2023-12-12T17:15:29.974Z,27.77
2023-12-12T17:18:31.965Z,28.77
2023-12-12T17:21:34.500Z,14.87
2023-12-12T17:24:39.760Z,15.50
2023-12-12T17:27:42.077Z,32.83
2023-12-12T17:30:45.497Z,23.30
2023-12-12T17:33:50.182Z,24.77
2023-12-12T17:36:53.474Z,24.07
2023-12-12T17:39:55.766Z,13.87
2023-12-12T17:42:58.072Z,16.17
2023-12-12T17:46:02.131Z,19.00
2023-12-12T17:49:05.208Z,26.10
2023-12-12T17:52:07.442Z,25.97
2023-12-12T17:55:09.758Z,18.57
2023-12-12T17:58:13.032Z,24.63
2023-12-12T18:01:15.679Z,21.07
2023-12-12T18:04:18.123Z,19.93
2023-12-12T18:07:20.328Z,19.90
2023-12-12T18:10:23.624Z,24.97
2023-12-12T18:13:25.969Z,20.50
2023-12-12T18:16:29.189Z,28.40
2023-12-12T18:19:32.425Z,17.67
2023-12-12T18:22:46.999Z,28.50
2023-12-12T18:25:49.586Z,25.57
2023-12-12T18:28:58.281Z,25.60
2023-12-12T18:32:00.782Z,24.20
2023-12-12T18:35:03.584Z,22.13
2023-12-12T18:38:07.160Z,22.07
2023-12-12T18:41:09.381Z,19.73
2023-12-12T18:44:13.236Z,15.87
2023-12-12T18:47:15.412Z,19.50
2023-12-12T18:50:19.465Z,15.63
2023-12-12T18:53:23.114Z,15.03
2023-12-12T18:56:26.432Z,16.13
2023-12-12T18:59:29.562Z,13.60
2023-12-12T19:02:32.264Z,13.13
2023-12-12T19:05:35.779Z,19.00
2023-12-12T19:08:47.300Z,12.17
2023-12-12T19:11:54.130Z,14.30
2023-12-12T19:14:58.373Z,18.67
2023-12-12T19:18:01.816Z,16.03
2023-12-12T19:21:05.142Z,18.13
2023-12-12T19:24:08.464Z,20.40
2023-12-12T19:27:10.823Z,21.47
2023-12-12T19:30:16.046Z,20.73
2023-12-12T19:33:21.187Z,18.93
2023-12-12T19:36:24.163Z,15.03
2023-12-12T19:39:28.992Z,16.93
2023-12-12T19:42:32.304Z,13.37
2023-12-12T19:45:35.823Z,17.97
2023-12-12T19:48:37.935Z,20.70
2023-12-12T19:51:47.645Z,11.67
2023-12-12T19:54:51.659Z,14.63
2023-12-12T19:57:54.438Z,13.33
2023-12-12T20:00:58.055Z,14.57
2023-12-12T20:04:00.555Z,13.07
2023-12-12T20:07:03.003Z,9.83
2023-12-12T20:10:06.269Z,10.63
2023-12-12T20:13:10.343Z,13.33
2023-12-12T20:16:18.576Z,14.07
2023-12-12T20:19:24.046Z,9.10
2023-12-12T20:22:27.513Z,13.00
2023-12-12T20:25:31.558Z,12.73
2023-12-12T20:28:33.985Z,13.47
2023-12-12T20:31:36.437Z,12.73
2023-12-12T20:34:38.752Z,14.07
2023-12-12T20:37:43.027Z,11.20
2023-12-12T20:40:46.308Z,12.50
2023-12-12T20:43:54.875Z,11.57
2023-12-12T20:46:58.780Z,13.37
2023-12-12T20:50:02.564Z,14.37
2023-12-12T20:53:05.216Z,17.43
2023-12-12T20:56:10.270Z,14.53
2023-12-12T20:59:12.996Z,8.80
2023-12-12T21:02:16.999Z,13.10
2023-12-12T21:05:20.467Z,12.70
2023-12-12T21:08:49.306Z,7.67
2023-12-12T21:11:51.501Z,7.73
2023-12-12T21:14:54.191Z,13.30
2023-12-12T21:17:56.819Z,15.07
2023-12-12T21:20:59.501Z,16.40
2023-12-12T21:24:01.519Z,13.13
2023-12-12T21:27:04.988Z,15.60
2023-12-12T21:30:08.209Z,16.03
2023-12-12T21:33:12.044Z,16.53
2023-12-12T21:36:15.266Z,10.43
2023-12-12T21:39:17.429Z,11.47
2023-12-12T21:42:19.865Z,12.67
2023-12-12T21:45:22.001Z,6.70
2023-12-12T21:48:25.487Z,9.20
2023-12-12T21:51:27.571Z,9.67
2023-12-12T21:54:33.955Z,10.90
2023-12-12T21:57:36.164Z,9.53
2023-12-12T22:00:38.608Z,7.77
2023-12-12T22:03:48.722Z,8.97
2023-12-12T22:06:51.717Z,11.77
2023-12-12T22:10:02.281Z,9.50
2023-12-12T22:13:04.588Z,8.67
2023-12-12T22:16:08.381Z,7.73
2023-12-12T22:19:10.489Z,6.23
2023-12-12T22:22:15.899Z,9.00
2023-12-12T22:25:18.263Z,7.50
2023-12-12T22:28:20.404Z,9.80
2023-12-12T22:31:22.872Z,8.23
2023-12-12T22:34:24.987Z,4.80
2023-12-12T22:37:28.404Z,6.90
2023-12-12T22:40:30.620Z,9.63
2023-12-12T22:43:33.308Z,8.33
2023-12-12T22:46:35.732Z,7.50
2023-12-12T22:49:37.997Z,7.83
2023-12-12T22:52:42.175Z,7.00
2023-12-12T22:55:45.240Z,8.00
2023-12-12T22:58:48.838Z,8.00
2023-12-12T23:01:51.141Z,5.87
2023-12-12T23:04:55.625Z,6.77
2023-12-12T23:07:59.275Z,7.53
2023-12-12T23:11:01.439Z,8.70
2023-12-12T23:14:04.915Z,5.00
2023-12-12T23:17:07.119Z,6.43
2023-12-12T23:20:11.824Z,4.30
2023-12-12T23:23:17.729Z,4.47
2023-12-12T23:26:20.032Z,5.77
2023-12-12T23:29:22.264Z,5.70
2023-12-12T23:32:25.603Z,6.47
2023-12-12T23:35:27.780Z,15.17
2023-12-12T23:38:32.262Z,4.53
2023-12-12T23:41:40.883Z,4.40
2023-12-12T23:44:42.925Z,5.53
2023-12-12T23:47:45.104Z,4.37
2023-12-12T23:50:47.437Z,4.97
2023-12-12T23:53:57.207Z,5.50
2023-12-12T23:57:00.733Z,5.60
